createdAt,value
2023-09-22T00:00:00.197Z,96.66
2023-09-22T00:00:21.174Z,96.66
2023-09-22T00:00:41.669Z,96.77
2023-09-22T00:01:02.598Z,96.77
2023-09-22T00:01:23.556Z,96.87
2023-09-22T00:01:44.491Z,96.97
2023-09-22T00:02:05.459Z,96.97
2023-09-22T00:02:26.464Z,97.07
2023-09-22T00:02:47.439Z,97.27
2023-09-22T00:03:08.336Z,97.47
2023-09-22T00:03:29.295Z,97.47
2023-09-22T00:03:50.268Z,97.27
2023-09-22T00:04:10.773Z,97.07
2023-09-22T00:04:31.686Z,96.97
2023-09-22T00:04:52.627Z,96.87
2023-09-22T00:05:13.559Z,96.87
2023-09-22T00:05:34.540Z,97.07
2023-09-22T00:05:55.511Z,97.17
2023-09-22T00:06:16.454Z,97.38
2023-09-22T00:06:37.421Z,97.27
2023-09-22T00:06:58.326Z,97.17
2023-09-22T00:07:19.263Z,97.38
2023-09-22T00:07:40.212Z,97.47
2023-09-22T00:08:01.152Z,97.58
2023-09-22T00:08:22.092Z,97.78
2023-09-22T00:08:43.018Z,97.78
2023-09-22T00:09:03.957Z,97.58
2023-09-22T00:09:25.004Z,97.38
2023-09-22T00:09:45.947Z,97.32
2023-09-22T00:10:06.848Z,97.47
2023-09-22T00:10:27.799Z,97.58
2023-09-22T00:10:48.797Z,97.62
2023-09-22T00:11:09.727Z,97.67
2023-09-22T00:11:30.630Z,97.92
2023-09-22T00:11:51.603Z,98.03
2023-09-22T00:12:12.579Z,97.92
2023-09-22T00:12:33.774Z,97.72
2023-09-22T00:12:54.088Z,97.52
2023-09-22T00:13:14.975Z,97.42
2023-09-22T00:13:35.896Z,97.11
2023-09-22T00:13:56.874Z,97.42
2023-09-22T00:14:17.801Z,97.32
2023-09-22T00:14:38.753Z,97.32
2023-09-22T00:14:59.710Z,97.32
2023-09-22T00:15:20.672Z,97.11
2023-09-22T00:15:41.615Z,97.22
2023-09-22T00:16:02.619Z,97.42
2023-09-22T00:16:23.579Z,97.32
2023-09-22T00:16:44.528Z,97.22
2023-09-22T00:17:05.414Z,97.22
2023-09-22T00:17:26.389Z,96.91
2023-09-22T00:17:47.358Z,96.81
2023-09-22T00:18:08.308Z,97.02
2023-09-22T00:18:29.262Z,96.81
2023-09-22T00:18:50.167Z,96.71
2023-09-22T00:19:11.092Z,96.81
2023-09-22T00:19:32.063Z,96.91
2023-09-22T00:19:53.038Z,96.91
2023-09-22T00:20:13.986Z,96.61
2023-09-22T00:20:34.953Z,96.71
2023-09-22T00:20:55.941Z,96.61
2023-09-22T00:21:16.918Z,96.51
2023-09-22T00:21:37.871Z,96.61
2023-09-22T00:21:58.802Z,96.61
2023-09-22T00:22:19.744Z,96.71
2023-09-22T00:22:40.696Z,96.71
2023-09-22T00:23:01.657Z,96.81
2023-09-22T00:23:22.624Z,96.81
2023-09-22T00:23:43.778Z,96.81
2023-09-22T00:24:04.286Z,96.91
2023-09-22T00:24:25.296Z,97.02
2023-09-22T00:24:45.859Z,97.02
2023-09-22T00:25:06.272Z,96.91
2023-09-22T00:25:27.215Z,97.02
2023-09-22T00:25:48.181Z,97.11
2023-09-22T00:26:09.128Z,97.42
2023-09-22T00:26:30.068Z,97.52
2023-09-22T00:26:50.983Z,97.52
2023-09-22T00:27:11.939Z,97.62
2023-09-22T00:27:33.135Z,97.42
2023-09-22T00:27:53.847Z,97.42
2023-09-22T00:28:14.378Z,96.91
2023-09-22T00:28:34.916Z,96.81
2023-09-22T00:28:55.875Z,96.71
2023-09-22T00:29:16.821Z,96.81
2023-09-22T00:29:37.799Z,97.02
2023-09-22T00:29:58.741Z,97.02
2023-09-22T00:30:19.721Z,96.91
2023-09-22T00:30:40.730Z,96.91
2023-09-22T00:31:01.689Z,96.91
2023-09-22T00:31:22.405Z,96.96
2023-09-22T00:31:42.747Z,96.96
2023-09-22T00:32:03.330Z,96.86
2023-09-22T00:32:23.919Z,96.86
2023-09-22T00:32:44.456Z,96.75
2023-09-22T00:33:04.952Z,96.66
2023-09-22T00:33:25.959Z,96.75
2023-09-22T00:33:46.819Z,96.86
2023-09-22T00:34:06.988Z,96.75
2023-09-22T00:34:27.893Z,96.66
2023-09-22T00:34:48.858Z,96.66
2023-09-22T00:35:09.821Z,96.66
2023-09-22T00:35:30.739Z,96.45
2023-09-22T00:35:51.707Z,96.35
2023-09-22T00:36:12.600Z,96.25
2023-09-22T00:36:33.591Z,95.94
2023-09-22T00:36:54.525Z,95.94
2023-09-22T00:37:15.472Z,96.25
2023-09-22T00:37:36.460Z,96.45
2023-09-22T00:37:57.429Z,96.15
2023-09-22T00:38:18.382Z,95.84
2023-09-22T00:38:39.311Z,95.94
2023-09-22T00:39:00.321Z,96.25
2023-09-22T00:39:21.296Z,96.04
2023-09-22T00:39:42.278Z,95.54
2023-09-22T00:40:03.207Z,95.34
2023-09-22T00:40:24.135Z,95.03
2023-09-22T00:40:45.102Z,95.03
2023-09-22T00:41:06.057Z,95.18
2023-09-22T00:41:27.026Z,95.07
2023-09-22T00:41:47.973Z,94.98
2023-09-22T00:42:08.908Z,94.77
2023-09-22T00:42:29.884Z,95.07
2023-09-22T00:42:50.890Z,95.38
2023-09-22T00:43:11.334Z,95.28
2023-09-22T00:43:32.370Z,95.38
2023-09-22T00:43:53.291Z,95.89
2023-09-22T00:44:14.236Z,95.99
2023-09-22T00:44:35.214Z,96.09
2023-09-22T00:44:56.122Z,96.09
2023-09-22T00:45:17.119Z,96.19
2023-09-22T00:45:38.069Z,96.30
2023-09-22T00:45:59.084Z,96.30
2023-09-22T00:46:19.578Z,96.60
2023-09-22T00:46:40.604Z,96.70
2023-09-22T00:47:01.022Z,96.80
2023-09-22T00:47:21.987Z,96.90
2023-09-22T00:47:42.960Z,96.90
2023-09-22T00:48:03.962Z,96.75
2023-09-22T00:48:24.408Z,96.75
2023-09-22T00:48:45.351Z,96.64
2023-09-22T00:49:06.265Z,96.75
2023-09-22T00:49:27.220Z,96.64
2023-09-22T00:49:48.277Z,96.54
2023-09-22T00:50:08.738Z,96.64
2023-09-22T00:50:29.658Z,96.75
2023-09-22T00:50:50.601Z,97.05
2023-09-22T00:51:11.550Z,97.35
2023-09-22T00:51:32.545Z,97.35
2023-09-22T00:51:53.446Z,97.56
2023-09-22T00:52:14.371Z,97.76
2023-09-22T00:52:35.310Z,97.96
2023-09-22T00:52:56.288Z,98.07
2023-09-22T00:53:17.284Z,98.16
2023-09-22T00:53:38.255Z,98.16
2023-09-22T00:53:59.172Z,98.27
2023-09-22T00:54:20.174Z,98.37
2023-09-22T00:54:41.123Z,98.47
2023-09-22T00:55:01.992Z,98.47
2023-09-22T00:55:22.947Z,98.47
2023-09-22T00:55:43.890Z,98.47
2023-09-22T00:56:04.845Z,98.47
2023-09-22T00:56:25.843Z,98.47
2023-09-22T00:56:46.794Z,98.47
2023-09-22T00:57:07.751Z,98.57
2023-09-22T00:57:28.715Z,98.57
2023-09-22T00:57:49.700Z,98.57
2023-09-22T00:58:10.611Z,98.68
2023-09-22T00:58:31.588Z,98.57
2023-09-22T00:58:52.531Z,98.57
2023-09-22T00:59:13.462Z,98.57
2023-09-22T00:59:34.426Z,98.47
2023-09-22T00:59:55.375Z,98.37
2023-09-22T01:00:16.348Z,98.27
2023-09-22T01:00:37.303Z,98.27
2023-09-22T01:00:58.275Z,98.27
2023-09-22T01:01:19.235Z,98.47
2023-09-22T01:01:40.249Z,98.68
2023-09-22T01:02:01.238Z,98.77
2023-09-22T01:02:22.134Z,98.77
2023-09-22T01:02:43.132Z,98.88
2023-09-22T01:03:04.070Z,98.88
2023-09-22T01:03:25.335Z,98.88
2023-09-22T01:03:46.262Z,98.57
2023-09-22T01:04:06.786Z,98.37
2023-09-22T01:04:27.390Z,98.27
2023-09-22T01:04:48.223Z,98.37
2023-09-22T01:05:09.170Z,98.47
2023-09-22T01:05:30.082Z,98.77
2023-09-22T01:05:51.033Z,98.77
2023-09-22T01:06:11.986Z,98.77
2023-09-22T01:06:32.913Z,98.77
2023-09-22T01:06:53.927Z,98.88
2023-09-22T01:07:14.863Z,98.97
2023-09-22T01:07:35.817Z,99.08
2023-09-22T01:07:56.758Z,99.18
2023-09-22T01:08:17.707Z,99.18
2023-09-22T01:08:38.631Z,99.28
2023-09-22T01:08:59.613Z,99.43
2023-09-22T01:09:20.606Z,99.43
2023-09-22T01:09:41.533Z,99.53
2023-09-22T01:10:02.444Z,99.53
2023-09-22T01:10:23.392Z,99.63
2023-09-22T01:10:44.341Z,99.53
2023-09-22T01:11:05.346Z,99.53
2023-09-22T01:11:25.854Z,99.63
2023-09-22T01:11:46.811Z,99.94
2023-09-22T01:12:07.752Z,99.99
2023-09-22T01:12:28.692Z,99.99
2023-09-22T01:12:49.657Z,99.99
2023-09-22T01:13:10.596Z,99.99
2023-09-22T01:13:31.590Z,99.99
2023-09-22T01:13:52.496Z,99.99
2023-09-22T01:14:13.533Z,99.99
2023-09-22T01:14:34.369Z,99.99
2023-09-22T01:14:55.334Z,99.99
2023-09-22T01:15:16.298Z,99.99
2023-09-22T01:15:37.269Z,99.99
2023-09-22T01:15:58.298Z,99.99
2023-09-22T01:16:18.788Z,99.99
2023-09-22T01:16:39.849Z,99.99
2023-09-22T01:17:00.300Z,99.99
2023-09-22T01:17:21.237Z,99.99
2023-09-22T01:17:42.205Z,99.99
2023-09-22T01:18:03.197Z,99.99
2023-09-22T01:18:24.085Z,99.99
2023-09-22T01:18:45.065Z,99.99
2023-09-22T01:19:05.545Z,99.99
2023-09-22T01:19:26.560Z,99.99
2023-09-22T01:19:47.460Z,99.99
2023-09-22T01:20:08.421Z,99.99
2023-09-22T01:20:29.375Z,99.99
2023-09-22T01:20:50.310Z,99.99
2023-09-22T01:21:11.226Z,99.99
2023-09-22T01:21:32.292Z,99.99
2023-09-22T01:21:52.741Z,99.99
2023-09-22T01:22:13.614Z,99.99
2023-09-22T01:22:34.514Z,99.99
2023-09-22T01:22:55.479Z,99.99
2023-09-22T01:23:16.430Z,99.99
2023-09-22T01:23:37.466Z,99.99
2023-09-22T01:23:57.929Z,99.99
2023-09-22T01:24:18.897Z,99.99
2023-09-22T01:24:39.873Z,99.99
2023-09-22T01:25:00.858Z,99.99
2023-09-22T01:25:21.760Z,99.99
2023-09-22T01:25:42.695Z,99.99
2023-09-22T01:26:03.628Z,99.99
2023-09-22T01:26:24.582Z,99.99
2023-09-22T01:26:45.495Z,99.99
2023-09-22T01:27:06.473Z,99.99
2023-09-22T01:27:27.482Z,99.99
2023-09-22T01:27:48.410Z,99.99
2023-09-22T01:28:09.417Z,99.99
2023-09-22T01:28:29.868Z,99.99
2023-09-22T01:28:50.815Z,99.99
2023-09-22T01:29:11.796Z,99.99
2023-09-22T01:29:32.840Z,99.99
2023-09-22T01:29:53.735Z,99.99
2023-09-22T01:30:14.658Z,99.99
2023-09-22T01:30:35.650Z,99.99
2023-09-22T01:30:56.632Z,99.99
2023-09-22T01:31:17.135Z,99.99
2023-09-22T01:31:38.121Z,99.99
2023-09-22T01:31:59.051Z,99.99
2023-09-22T01:32:19.977Z,99.99
2023-09-22T01:32:40.924Z,99.99
2023-09-22T01:33:01.904Z,99.99
2023-09-22T01:33:22.918Z,99.99
2023-09-22T01:33:43.660Z,99.99
2023-09-22T01:34:04.336Z,99.99
2023-09-22T01:34:25.194Z,99.99
2023-09-22T01:34:46.204Z,99.99
2023-09-22T01:35:07.144Z,99.99
2023-09-22T01:35:28.066Z,99.99
2023-09-22T01:35:49.040Z,99.99
2023-09-22T01:36:09.987Z,99.99
2023-09-22T01:36:30.956Z,99.99
2023-09-22T01:36:52.018Z,99.99
2023-09-22T01:37:12.411Z,99.99
2023-09-22T01:37:33.379Z,99.99
2023-09-22T01:37:54.344Z,99.99
2023-09-22T01:38:15.279Z,99.99
2023-09-22T01:38:36.239Z,99.99
2023-09-22T01:38:57.177Z,99.99
2023-09-22T01:39:18.224Z,99.99
2023-09-22T01:39:38.704Z,99.99
2023-09-22T01:39:59.659Z,99.99
2023-09-22T01:40:20.580Z,99.99
2023-09-22T01:40:41.524Z,99.99
2023-09-22T01:41:02.508Z,99.99
2023-09-22T01:41:23.436Z,99.99
2023-09-22T01:41:44.400Z,99.99
2023-09-22T01:42:05.294Z,99.99
2023-09-22T01:42:26.280Z,99.99
2023-09-22T01:42:47.255Z,99.99
2023-09-22T01:43:08.180Z,99.99
2023-09-22T01:43:29.179Z,99.99
2023-09-22T01:44:58.631Z,99.99
2023-09-22T01:45:19.052Z,99.99
2023-09-22T01:45:40.039Z,99.99
2023-09-22T01:46:01.064Z,99.99
2023-09-22T01:46:21.708Z,99.99
2023-09-22T01:46:42.301Z,99.99
2023-09-22T01:47:02.704Z,99.99
2023-09-22T01:47:23.647Z,99.99
2023-09-22T01:47:44.709Z,99.99
2023-09-22T01:48:05.664Z,99.99
2023-09-22T01:48:26.629Z,99.99
2023-09-22T01:48:47.356Z,99.99
2023-09-22T01:49:07.966Z,99.99
2023-09-22T01:49:28.827Z,99.99
2023-09-22T01:49:49.770Z,99.99
2023-09-22T01:50:10.723Z,99.99
2023-09-22T01:50:31.655Z,99.99
2023-09-22T01:50:52.617Z,99.99
2023-09-22T01:51:13.584Z,99.99
2023-09-22T01:51:34.540Z,99.99
2023-09-22T01:51:55.632Z,99.99
2023-09-22T01:52:16.105Z,99.99
2023-09-22T01:52:37.064Z,99.99
2023-09-22T01:52:58.018Z,99.99
2023-09-22T01:53:18.905Z,99.99
2023-09-22T01:53:39.977Z,99.99
2023-09-22T01:54:00.433Z,99.99
2023-09-22T01:54:21.443Z,99.99
2023-09-22T01:54:42.455Z,99.99
2023-09-22T01:55:02.862Z,99.99
2023-09-22T01:55:23.827Z,99.99
2023-09-22T01:55:44.808Z,99.99
2023-09-22T01:56:05.739Z,99.99
2023-09-22T01:56:26.713Z,99.99
2023-09-22T01:56:47.645Z,99.99
2023-09-22T01:57:08.574Z,99.99
2023-09-22T01:57:29.643Z,99.99
2023-09-22T01:57:50.076Z,99.99
2023-09-22T01:58:11.022Z,99.99
2023-09-22T01:58:31.977Z,99.99
2023-09-22T01:58:52.943Z,99.99
2023-09-22T01:59:13.878Z,99.99
2023-09-22T01:59:34.887Z,99.99
2023-09-22T01:59:55.336Z,99.99
2023-09-22T02:00:16.282Z,99.99
2023-09-22T02:00:37.324Z,99.99
2023-09-22T02:00:57.768Z,99.99
2023-09-22T02:01:18.773Z,99.99
2023-09-22T02:01:39.233Z,99.99
2023-09-22T02:02:00.123Z,99.99
2023-09-22T02:02:21.056Z,99.99
2023-09-22T02:02:42.100Z,99.99
2023-09-22T02:03:02.689Z,99.99
2023-09-22T02:03:23.343Z,99.99
2023-09-22T02:03:44.107Z,99.99
2023-09-22T02:04:04.705Z,99.99
2023-09-22T02:04:25.414Z,99.99
2023-09-22T02:04:46.301Z,99.99
2023-09-22T02:05:06.858Z,99.99
2023-09-22T02:05:27.786Z,99.99
2023-09-22T02:05:48.696Z,99.99
2023-09-22T02:06:09.621Z,99.99
2023-09-22T02:06:30.590Z,99.99
2023-09-22T02:06:51.583Z,99.99
2023-09-22T02:07:12.511Z,99.99
2023-09-22T02:07:33.458Z,99.99
2023-09-22T02:07:54.389Z,99.99
2023-09-22T02:08:15.365Z,99.99
2023-09-22T02:08:36.300Z,99.99
2023-09-22T02:08:57.296Z,99.99
2023-09-22T02:09:18.219Z,99.99
2023-09-22T02:09:39.196Z,99.99
2023-09-22T02:10:00.167Z,99.99
2023-09-22T02:10:21.130Z,99.99
2023-09-22T02:10:42.075Z,99.99
2023-09-22T02:11:03.018Z,99.99
2023-09-22T02:11:23.983Z,99.99
2023-09-22T02:11:44.931Z,99.99
2023-09-22T02:12:05.875Z,99.99
2023-09-22T02:12:26.871Z,99.99
2023-09-22T02:12:47.824Z,99.99
2023-09-22T02:13:08.746Z,99.99
2023-09-22T02:13:29.662Z,99.99
2023-09-22T02:13:50.608Z,99.99
2023-09-22T02:14:11.578Z,99.99
2023-09-22T02:14:32.543Z,99.99
2023-09-22T02:14:53.489Z,99.99
2023-09-22T02:15:14.444Z,99.99
2023-09-22T02:15:35.427Z,99.99
2023-09-22T02:15:56.423Z,99.99
2023-09-22T02:16:17.379Z,99.99
2023-09-22T02:16:38.333Z,99.99
2023-09-22T02:16:59.233Z,99.99
2023-09-22T02:17:20.155Z,99.99
2023-09-22T02:17:41.179Z,99.99
2023-09-22T02:18:01.647Z,99.99
2023-09-22T02:18:22.609Z,99.99
2023-09-22T02:18:43.860Z,99.99
2023-09-22T02:19:04.369Z,99.99
2023-09-22T02:19:24.798Z,99.99
2023-09-22T02:19:45.724Z,99.99
2023-09-22T02:20:06.684Z,99.99
2023-09-22T02:20:27.597Z,99.99
2023-09-22T02:20:48.541Z,99.99
2023-09-22T02:21:09.513Z,99.99
2023-09-22T02:21:30.487Z,99.99
2023-09-22T02:21:51.438Z,99.99
2023-09-22T02:22:12.373Z,99.99
2023-09-22T02:22:33.318Z,99.99
2023-09-22T02:22:54.262Z,99.99
2023-09-22T02:23:15.220Z,99.99
2023-09-22T02:23:36.166Z,99.99
2023-09-22T02:23:57.125Z,99.99
2023-09-22T02:24:18.103Z,99.99
2023-09-22T02:24:39.119Z,99.99
2023-09-22T02:25:00.040Z,99.99
2023-09-22T02:25:20.928Z,99.99
2023-09-22T02:25:41.900Z,99.99
2023-09-22T02:26:02.828Z,99.99
2023-09-22T02:26:23.808Z,99.99
2023-09-22T02:26:44.778Z,99.99
2023-09-22T02:27:05.692Z,99.99
2023-09-22T02:27:26.709Z,99.99
2023-09-22T02:27:47.613Z,99.99
2023-09-22T02:28:08.588Z,99.99
2023-09-22T02:28:29.494Z,99.99
2023-09-22T02:28:50.421Z,99.99
2023-09-22T02:29:11.353Z,99.99
2023-09-22T02:29:31.911Z,99.99
2023-09-22T02:29:52.888Z,99.99
2023-09-22T02:30:13.812Z,99.99
2023-09-22T02:30:34.784Z,99.99
2023-09-22T02:30:55.933Z,99.99
2023-09-22T02:31:16.601Z,99.99
2023-09-22T02:31:37.105Z,99.99
2023-09-22T02:31:58.061Z,99.99
2023-09-22T02:32:18.991Z,99.99
2023-09-22T02:32:39.986Z,99.99
2023-09-22T02:33:00.987Z,99.99
2023-09-22T02:33:21.423Z,99.99
2023-09-22T02:33:41.957Z,99.99
2023-09-22T02:34:02.934Z,99.99
2023-09-22T02:34:23.881Z,99.99
2023-09-22T02:34:44.334Z,99.99
2023-09-22T02:35:05.276Z,99.99
2023-09-22T02:35:26.235Z,99.99
2023-09-22T02:35:47.233Z,99.99
2023-09-22T02:36:07.671Z,99.99
2023-09-22T02:36:28.657Z,99.99
2023-09-22T02:36:49.605Z,99.99
2023-09-22T02:37:10.533Z,99.99
2023-09-22T02:37:31.483Z,99.99
2023-09-22T02:37:52.396Z,99.99
2023-09-22T02:38:13.379Z,99.99
2023-09-22T02:38:34.349Z,99.99
2023-09-22T02:38:55.263Z,99.99
2023-09-22T02:39:16.221Z,99.99
2023-09-22T02:39:37.257Z,99.99
2023-09-22T02:39:58.256Z,99.99
2023-09-22T02:40:19.205Z,99.99
2023-09-22T02:40:40.108Z,99.99
2023-09-22T02:41:01.036Z,99.99
2023-09-22T02:41:21.973Z,99.99
2023-09-22T02:41:42.954Z,99.99
2023-09-22T02:42:03.886Z,99.99
2023-09-22T02:42:24.893Z,99.99
2023-09-22T02:42:45.882Z,99.99
2023-09-22T02:43:06.857Z,99.99
2023-09-22T02:43:27.804Z,99.99
2023-09-22T02:43:49.413Z,99.99
2023-09-22T02:44:09.424Z,99.99
2023-09-22T02:44:29.875Z,99.99
2023-09-22T02:44:50.783Z,99.99
2023-09-22T02:45:11.892Z,99.99
2023-09-22T02:45:32.610Z,99.99
2023-09-22T02:45:53.187Z,99.99
2023-09-22T02:46:14.071Z,99.99
2023-09-22T02:46:34.785Z,99.99
2023-09-22T02:46:55.389Z,99.99
2023-09-22T02:47:16.166Z,99.99
2023-09-22T02:47:36.770Z,99.99
2023-09-22T02:47:57.288Z,99.99
2023-09-22T02:48:18.227Z,99.99
2023-09-22T02:48:39.231Z,99.99
2023-09-22T02:48:59.681Z,99.99
2023-09-22T02:49:20.647Z,99.99
2023-09-22T02:49:41.545Z,99.99
2023-09-22T02:50:02.520Z,99.99
2023-09-22T02:50:23.478Z,99.99
2023-09-22T02:50:44.400Z,99.99
2023-09-22T02:51:05.346Z,99.99
2023-09-22T02:51:26.350Z,99.99
2023-09-22T02:51:47.331Z,99.99
2023-09-22T02:52:10.237Z,99.99
2023-09-22T02:52:29.176Z,99.99
2023-09-22T02:52:50.115Z,99.99
2023-09-22T02:53:11.060Z,99.99
2023-09-22T02:53:32.005Z,99.99
2023-09-22T02:53:52.993Z,99.99
2023-09-22T02:54:13.923Z,99.99
2023-09-22T02:54:34.883Z,99.99
2023-09-22T02:54:55.937Z,99.99
2023-09-22T02:55:16.401Z,99.99
2023-09-22T02:55:37.279Z,99.99
2023-09-22T02:55:58.216Z,99.99
2023-09-22T02:56:19.185Z,99.99
2023-09-22T02:56:40.120Z,99.99
2023-09-22T02:57:01.077Z,99.99
2023-09-22T02:57:22.109Z,99.99
2023-09-22T02:57:42.678Z,99.99
2023-09-22T02:58:03.100Z,99.99
2023-09-22T02:58:23.599Z,99.99
2023-09-22T02:58:44.740Z,99.99
2023-09-22T02:59:05.390Z,99.99
2023-09-22T02:59:26.351Z,99.99
2023-09-22T02:59:47.280Z,99.99
2023-09-22T03:00:08.235Z,99.99
2023-09-22T03:00:29.239Z,99.99
2023-09-22T03:00:50.261Z,99.99
2023-09-22T03:01:10.959Z,99.99
2023-09-22T03:01:31.685Z,99.99
2023-09-22T03:01:52.560Z,99.99
2023-09-22T03:02:13.498Z,99.99
2023-09-22T03:02:34.458Z,99.99
2023-09-22T03:02:55.493Z,99.99
2023-09-22T03:03:15.970Z,99.99
2023-09-22T03:03:36.637Z,99.99
2023-09-22T03:03:57.141Z,99.99
2023-09-22T03:04:18.117Z,99.99
2023-09-22T03:04:39.026Z,99.99
2023-09-22T03:04:59.969Z,99.99
2023-09-22T03:05:20.908Z,99.99
2023-09-22T03:05:41.810Z,99.99
2023-09-22T03:06:02.758Z,99.99
2023-09-22T03:06:23.758Z,99.99
2023-09-22T03:06:44.760Z,99.99
2023-09-22T03:07:05.652Z,99.99
2023-09-22T03:07:26.608Z,99.99
2023-09-22T03:07:47.575Z,99.99
2023-09-22T03:08:08.496Z,99.99
2023-09-22T03:08:29.448Z,99.99
2023-09-22T03:08:50.371Z,99.99
2023-09-22T03:09:11.351Z,99.99
2023-09-22T03:09:32.277Z,99.99
2023-09-22T03:09:53.280Z,99.99
2023-09-22T03:10:14.208Z,99.99
2023-09-22T03:10:35.160Z,99.99
2023-09-22T03:10:56.117Z,99.99
2023-09-22T03:11:17.057Z,99.99
2023-09-22T03:11:37.990Z,99.99
2023-09-22T03:11:58.912Z,99.99
2023-09-22T03:12:19.869Z,99.99
2023-09-22T03:12:40.832Z,99.99
2023-09-22T03:13:01.830Z,99.99
2023-09-22T03:13:22.723Z,99.99
2023-09-22T03:13:43.679Z,99.99
2023-09-22T03:14:04.644Z,99.99
2023-09-22T03:14:25.606Z,99.99
2023-09-22T03:14:46.551Z,99.99
2023-09-22T03:15:07.512Z,99.99
2023-09-22T03:15:28.500Z,99.99
2023-09-22T03:15:49.452Z,99.99
2023-09-22T03:16:10.484Z,99.99
2023-09-22T03:16:31.115Z,99.99
2023-09-22T03:16:51.653Z,99.99
2023-09-22T03:17:12.551Z,99.99
2023-09-22T03:17:33.539Z,99.99
2023-09-22T03:17:54.599Z,99.99
2023-09-22T03:18:15.138Z,99.99
2023-09-22T03:18:36.134Z,99.99
2023-09-22T03:18:57.040Z,99.99
2023-09-22T03:19:18.033Z,99.99
2023-09-22T03:19:38.506Z,99.99
2023-09-22T03:19:59.557Z,99.99
2023-09-22T03:20:20.419Z,99.99
2023-09-22T03:20:41.342Z,99.99
2023-09-22T03:21:02.293Z,99.99
2023-09-22T03:21:23.280Z,99.99
2023-09-22T03:21:44.172Z,99.99
2023-09-22T03:22:05.144Z,99.99
2023-09-22T03:22:26.093Z,99.99
2023-09-22T03:22:47.067Z,99.99
2023-09-22T03:23:07.523Z,99.99
2023-09-22T03:23:28.464Z,99.99
2023-09-22T03:23:49.436Z,99.99
2023-09-22T03:24:10.367Z,99.99
2023-09-22T03:24:31.335Z,99.99
2023-09-22T03:24:52.385Z,99.99
2023-09-22T03:25:12.800Z,99.99
2023-09-22T03:25:33.738Z,99.99
2023-09-22T03:25:54.749Z,99.99
2023-09-22T03:26:15.221Z,99.99
2023-09-22T03:26:36.182Z,99.99
2023-09-22T03:26:57.158Z,99.99
2023-09-22T03:27:18.156Z,99.99
2023-09-22T03:27:39.115Z,99.99
2023-09-22T03:28:00.074Z,99.99
2023-09-22T03:28:21.041Z,99.99
2023-09-22T03:28:42.018Z,99.99
2023-09-22T03:29:02.916Z,99.99
2023-09-22T03:29:23.843Z,99.99
2023-09-22T03:29:44.793Z,99.99
2023-09-22T03:30:05.748Z,99.99
2023-09-22T03:30:26.704Z,99.99
2023-09-22T03:30:47.677Z,99.99
2023-09-22T03:31:08.716Z,99.99
2023-09-22T03:31:29.199Z,99.99
2023-09-22T03:31:50.140Z,99.99
2023-09-22T03:32:11.079Z,99.99
2023-09-22T03:32:32.062Z,99.99
2023-09-22T03:32:52.997Z,99.99
2023-09-22T03:33:13.901Z,99.99
2023-09-22T03:33:34.896Z,99.99
2023-09-22T03:33:55.802Z,99.99
2023-09-22T03:34:16.727Z,99.99
2023-09-22T03:34:37.663Z,99.99
2023-09-22T03:34:58.647Z,99.99
2023-09-22T03:35:19.562Z,99.99
2023-09-22T03:35:40.506Z,99.99
2023-09-22T03:36:01.470Z,99.99
2023-09-22T03:36:22.481Z,99.99
2023-09-22T03:36:43.441Z,99.99
2023-09-22T03:37:04.404Z,99.99
2023-09-22T03:37:25.308Z,99.99
2023-09-22T03:37:46.236Z,99.99
2023-09-22T03:38:07.181Z,99.99
2023-09-22T03:38:28.119Z,99.99
2023-09-22T03:38:49.071Z,99.99
2023-09-22T03:39:10.022Z,99.99
2023-09-22T03:39:30.979Z,99.99
2023-09-22T03:39:51.928Z,99.99
2023-09-22T03:40:12.876Z,99.99
2023-09-22T03:40:33.813Z,99.99
2023-09-22T03:40:54.731Z,99.99
2023-09-22T03:41:15.685Z,99.99
2023-09-22T03:41:36.647Z,99.99
2023-09-22T03:41:57.701Z,99.99
2023-09-22T03:42:18.144Z,99.99
2023-09-22T03:42:39.116Z,99.99
2023-09-22T03:43:00.088Z,99.99
2023-09-22T03:43:20.975Z,99.99
2023-09-22T03:43:41.928Z,99.99
2023-09-22T03:44:02.843Z,99.99
2023-09-22T03:44:23.771Z,99.99
2023-09-22T03:44:44.695Z,99.99
2023-09-22T03:45:05.622Z,99.99
2023-09-22T03:45:26.583Z,99.99
2023-09-22T03:45:47.550Z,99.99
2023-09-22T03:46:08.546Z,99.99
2023-09-22T03:46:29.467Z,99.99
2023-09-22T03:46:50.468Z,99.99
2023-09-22T03:47:11.360Z,99.99
2023-09-22T03:47:32.367Z,99.99
2023-09-22T03:47:53.258Z,99.99
2023-09-22T03:48:14.157Z,99.99
2023-09-22T03:48:35.168Z,99.99
2023-09-22T03:48:56.109Z,99.99
2023-09-22T03:49:17.023Z,99.99
2023-09-22T03:49:37.974Z,99.99
2023-09-22T03:49:58.921Z,99.99
2023-09-22T03:50:19.893Z,99.99
2023-09-22T03:50:40.842Z,99.99
2023-09-22T03:51:01.782Z,99.99
2023-09-22T03:51:22.742Z,99.99
2023-09-22T03:51:43.693Z,99.99
2023-09-22T03:52:04.642Z,99.99
2023-09-22T03:52:25.539Z,99.99
2023-09-22T03:52:46.573Z,99.99
2023-09-22T03:53:07.069Z,99.99
2023-09-22T03:53:27.567Z,99.99
2023-09-22T03:53:48.455Z,99.99
2023-09-22T03:54:09.444Z,99.99
2023-09-22T03:54:30.440Z,99.99
2023-09-22T03:54:51.336Z,99.99
2023-09-22T03:55:12.296Z,99.99
2023-09-22T03:55:33.268Z,99.99
2023-09-22T03:55:54.210Z,99.99
2023-09-22T03:56:15.142Z,99.99
2023-09-22T03:56:36.073Z,99.99
2023-09-22T03:56:57.050Z,99.99
2023-09-22T03:57:18.171Z,99.99
2023-09-22T03:57:38.668Z,99.99
2023-09-22T03:57:59.604Z,99.99
2023-09-22T03:58:20.517Z,99.99
2023-09-22T03:58:41.453Z,99.99
2023-09-22T03:59:02.371Z,99.99
2023-09-22T03:59:23.323Z,99.99
2023-09-22T03:59:44.249Z,99.99
2023-09-22T04:00:05.164Z,99.99
2023-09-22T04:00:26.204Z,99.99
2023-09-22T04:00:46.718Z,99.99
2023-09-22T04:01:07.795Z,99.99
2023-09-22T04:01:28.495Z,99.99
2023-09-22T04:01:49.456Z,99.99
2023-09-22T04:02:10.365Z,99.99
2023-09-22T04:02:31.396Z,99.99
2023-09-22T04:02:52.396Z,99.99
2023-09-22T04:03:12.958Z,99.99
2023-09-22T04:03:33.461Z,99.99
2023-09-22T04:03:53.973Z,99.99
2023-09-22T04:04:14.976Z,99.99
2023-09-22T04:04:35.449Z,99.99
2023-09-22T04:04:56.339Z,99.99
2023-09-22T04:05:17.304Z,99.99
2023-09-22T04:05:38.234Z,99.99
2023-09-22T04:05:59.217Z,99.99
2023-09-22T04:06:20.178Z,99.99
2023-09-22T04:06:41.144Z,99.99
2023-09-22T04:07:02.145Z,99.99
2023-09-22T04:07:23.071Z,99.99
2023-09-22T04:07:44.192Z,99.99
2023-09-22T04:08:04.586Z,99.99
2023-09-22T04:08:25.530Z,99.99
2023-09-22T04:08:46.777Z,99.99
2023-09-22T04:09:07.127Z,99.99
2023-09-22T04:09:28.117Z,99.99
2023-09-22T04:09:49.056Z,99.99
2023-09-22T04:10:09.989Z,99.99
2023-09-22T04:10:31.004Z,99.99
2023-09-22T04:10:51.422Z,99.99
2023-09-22T04:11:12.354Z,99.99
2023-09-22T04:11:33.319Z,99.99
2023-09-22T04:11:54.236Z,99.99
2023-09-22T04:12:15.166Z,99.99
2023-09-22T04:12:36.118Z,99.99
2023-09-22T04:12:57.076Z,99.99
2023-09-22T04:13:18.016Z,99.99
2023-09-22T04:13:38.970Z,99.99
2023-09-22T04:13:59.923Z,99.99
2023-09-22T04:14:20.880Z,99.99
2023-09-22T04:14:43.614Z,99.99
2023-09-22T04:15:02.431Z,99.99
2023-09-22T04:15:23.379Z,99.99
2023-09-22T04:15:44.398Z,99.99
2023-09-22T04:16:04.852Z,99.99
2023-09-22T04:16:25.904Z,99.99
2023-09-22T04:16:46.525Z,99.99
2023-09-22T04:17:07.535Z,99.99
2023-09-22T04:17:28.467Z,99.99
2023-09-22T04:17:49.092Z,99.99
2023-09-22T04:18:09.604Z,99.99
2023-09-22T04:18:30.674Z,99.99
2023-09-22T04:18:51.210Z,99.99
2023-09-22T04:19:12.234Z,99.99
2023-09-22T04:19:33.147Z,99.99
2023-09-22T04:19:54.086Z,99.99
2023-09-22T04:20:16.906Z,99.99
2023-09-22T04:20:35.530Z,99.99
2023-09-22T04:20:56.454Z,99.99
2023-09-22T04:21:17.419Z,99.99
2023-09-22T04:21:38.041Z,99.99
2023-09-22T04:21:59.013Z,99.99
2023-09-22T04:22:19.936Z,99.99
2023-09-22T04:22:40.877Z,99.99
2023-09-22T04:23:01.843Z,99.99
2023-09-22T04:23:22.780Z,99.99
2023-09-22T04:23:43.796Z,99.99
2023-09-22T04:24:04.373Z,99.99
2023-09-22T04:24:25.354Z,99.99
2023-09-22T04:24:46.362Z,99.99
2023-09-22T04:25:07.297Z,99.99
2023-09-22T04:25:28.174Z,99.99
2023-09-22T04:25:49.138Z,99.99
2023-09-22T04:26:10.102Z,99.99
2023-09-22T04:26:31.325Z,99.99
2023-09-22T04:26:51.964Z,99.99
2023-09-22T04:27:12.895Z,99.99
2023-09-22T04:27:33.961Z,99.99
2023-09-22T04:27:54.598Z,99.99
2023-09-22T04:28:15.515Z,99.99
2023-09-22T04:28:36.476Z,99.99
2023-09-22T04:28:57.411Z,99.99
2023-09-22T04:29:20.081Z,99.99
2023-09-22T04:29:39.390Z,99.99
2023-09-22T04:30:00.354Z,99.99